Time;durP1;ratioP1;P1;durP2;ratioP2;P2;SDS_P1;SDS_P2;PMS_P1;PMS_P2;Temp;Humidity;BMP_temperature;BMP_pressure;BME280_temperature;BME280_humidity;BME280_pressure;Samples;Min_cycle;Max_cycle;Signal;HPM_P1;HPM_P2
2021/07/23 00:01:40;;;;;;;1.10;1.00;;;25.70;42.60;;;;;;5052909;28;20027;-60
2021/07/23 00:04:05;;;;;;;1.38;1.00;;;25.70;42.60;;;;;;5053175;28;20104;-61
2021/07/23 00:06:31;;;;;;;0.93;0.88;;;25.70;42.60;;;;;;5052768;28;20036;-59
2021/07/23 00:08:57;;;;;;;1.05;0.90;;;25.70;42.60;;;;;;5052155;28;20556;-62
2021/07/23 00:11:23;;;;;;;1.15;0.80;;;25.70;42.60;;;;;;5048269;28;20029;-62
2021/07/23 00:13:49;;;;;;;0.95;0.85;;;25.70;42.60;;;;;;5053063;28;20032;-59
2021/07/23 00:16:15;;;;;;;1.23;0.82;;;25.70;42.60;;;;;;5053097;28;20025;-60
2021/07/23 00:18:41;;;;;;;1.10;0.98;;;25.60;42.50;;;;;;5047298;28;20036;-60
2021/07/23 00:21:06;;;;;;;1.13;1.00;;;25.60;42.50;;;;;;5051383;28;20087;-62
2021/07/23 00:23:32;;;;;;;1.30;0.95;;;25.60;42.50;;;;;;5047761;28;20437;-60
2021/07/23 00:25:58;;;;;;;0.80;0.80;;;25.60;42.60;;;;;;5052359;28;20025;-62
2021/07/23 00:28:24;;;;;;;0.82;0.80;;;25.60;42.60;;;;;;5051433;28;20345;-58
2021/07/23 00:30:50;;;;;;;1.23;1.00;;;25.60;42.60;;;;;;5053096;28;20032;-60
2021/07/23 00:33:15;;;;;;;1.20;1.10;;;25.60;42.60;;;;;;5047183;28;20044;-60
2021/07/23 00:35:41;;;;;;;0.90;0.80;;;25.60;42.60;;;;;;5050825;28;20032;-60
2021/07/23 00:38:08;;;;;;;1.10;0.93;;;25.60;42.60;;;;;;5034300;28;20159;-60
2021/07/23 00:40:34;;;;;;;1.00;0.80;;;25.60;42.60;;;;;;5034215;28;20024;-60
2021/07/23 00:43:01;;;;;;;1.05;0.85;;;25.50;42.60;;;;;;5033603;28;20017;-60
2021/07/23 00:45:27;;;;;;;2.00;1.00;;;25.50;42.50;;;;;;5032210;28;20033;-61
2021/07/23 00:47:57;;;;;;;1.17;0.93;;;25.50;42.60;;;;;;5034066;28;20154;-59
2021/07/23 00:50:23;;;;;;;1.13;1.02;;;25.50;42.60;;;;;;5033420;28;20047;-59
2021/07/23 00:52:50;;;;;;;0.70;0.70;;;25.50;42.60;;;;;;5033502;28;20025;-63
2021/07/23 00:55:17;;;;;;;1.35;1.00;;;25.50;42.60;;;;;;5033482;28;20025;-61
2021/07/23 00:57:46;;;;;;;1.73;1.13;;;25.50;42.60;;;;;;5033756;28;20132;-61
2021/07/23 01:00:13;;;;;;;1.02;0.93;;;25.50;42.60;;;;;;5033319;28;20028;-63
2021/07/23 01:02:55;;;;;;;1.52;0.93;;;25.40;42.60;;;;;;5034012;28;20056;-61
2021/07/23 01:05:23;;;;;;;1.50;1.10;;;25.40;42.60;;;;;;5032385;28;20329;-60
2021/07/23 01:07:49;;;;;;;1.00;0.90;;;25.40;42.60;;;;;;5033787;28;20049;-62
2021/07/23 01:10:16;;;;;;;1.42;1.10;;;25.40;42.60;;;;;;5049748;28;20072;-59
2021/07/23 01:13:01;;;;;;;1.50;0.95;;;25.40;42.60;;;;;;5048934;28;20044;-61
2021/07/23 01:15:29;;;;;;;1.42;1.00;;;25.40;42.60;;;;;;5051330;28;20020;-60
2021/07/23 01:17:55;;;;;;;1.02;0.90;;;25.40;42.70;;;;;;5033643;28;20170;-60
2021/07/23 01:20:27;;;;;;;1.10;1.00;;;25.40;42.70;;;;;;5030778;28;20373;-59
2021/07/23 01:22:59;;;;;;;1.20;1.10;;;25.40;42.70;;;;;;5045852;28;20411;-59
2021/07/23 01:25:26;;;;;;;1.48;1.10;;;25.40;42.70;;;;;;5031032;28;20033;-59
2021/07/23 01:27:54;;;;;;;1.20;0.90;;;25.40;42.80;;;;;;5031287;28;20120;-60
2021/07/23 01:30:39;;;;;;;1.00;0.90;;;25.30;42.80;;;;;;5033372;28;20037;-61
2021/07/23 01:33:16;;;;;;;1.20;1.02;;;25.30;42.80;;;;;;5033088;28;20025;-59
2021/07/23 01:35:45;;;;;;;1.27;0.93;;;25.30;42.80;;;;;;5047663;28;20444;-60
2021/07/23 01:38:17;;;;;;;1.40;1.10;;;25.30;42.80;;;;;;5033113;28;20020;-60
2021/07/23 01:40:43;;;;;;;1.45;1.02;;;25.30;42.80;;;;;;5028809;28;20059;-60
2021/07/23 01:43:11;;;;;;;1.30;1.20;;;25.30;42.90;;;;;;5033135;28;20127;-61
2021/07/23 01:45:39;;;;;;;1.20;1.10;;;25.30;42.80;;;;;;5033185;28;20029;-61
2021/07/23 01:48:23;;;;;;;1.25;1.00;;;25.30;42.90;;;;;;5051467;28;20087;-60
2021/07/23 01:50:50;;;;;;;1.23;1.02;;;25.30;42.90;;;;;;5027807;28;20029;-60
2021/07/23 01:53:16;;;;;;;1.77;1.38;;;25.20;42.90;;;;;;5030728;28;20071;-61
2021/07/23 01:55:57;;;;;;;1.58;1.10;;;25.20;42.80;;;;;;5032335;28;20035;-57
2021/07/23 01:58:23;;;;;;;1.40;1.10;;;25.20;42.80;;;;;;5032180;28;20112;-59
2021/07/23 02:00:50;;;;;;;1.42;0.95;;;25.20;42.80;;;;;;5029826;28;20056;-61
2021/07/23 02:03:22;;;;;;;1.17;1.08;;;25.20;42.80;;;;;;5033364;28;20024;-57
2021/07/23 02:05:48;;;;;;;1.13;1.02;;;25.20;42.80;;;;;;5032804;28;20029;-58
2021/07/23 02:08:14;;;;;;;1.20;1.10;;;25.20;42.80;;;;;;5030184;28;20057;-60
2021/07/23 02:10:40;;;;;;;1.30;1.20;;;25.10;42.70;;;;;;5031176;28;20037;-60
2021/07/23 02:13:07;;;;;;;1.25;1.00;;;25.20;42.80;;;;;;5030647;28;20025;-59
2021/07/23 02:15:36;;;;;;;1.60;1.10;;;25.10;42.70;;;;;;5032787;28;20033;-60
2021/07/23 02:18:02;;;;;;;1.25;0.95;;;25.10;42.70;;;;;;5050970;28;20100;-59
2021/07/23 02:20:31;;;;;;;1.10;1.00;;;25.10;42.70;;;;;;5028334;28;20073;-59
2021/07/23 02:22:57;;;;;;;1.63;1.17;;;25.10;42.70;;;;;;5051743;28;20053;-59
2021/07/23 02:25:34;;;;;;;1.27;1.10;;;25.10;42.70;;;;;;5033094;28;20030;-60
2021/07/23 02:28:00;;;;;;;1.67;1.02;;;25.10;42.70;;;;;;5034061;28;20076;-61
2021/07/23 02:30:27;;;;;;;1.13;0.98;;;25.10;42.70;;;;;;5032609;28;20499;-62
2021/07/23 02:33:28;;;;;;;1.27;0.98;;;25.10;42.70;;;;;;4943635;29;20050;-60
2021/07/23 02:36:13;;;;;;;1.40;1.27;;;25.00;42.60;;;;;;5024428;28;20033;-61
2021/07/23 02:38:40;;;;;;;1.35;1.00;;;25.00;42.60;;;;;;5033925;28;20452;-62
2021/07/23 02:41:10;;;;;;;1.30;1.15;;;25.10;42.70;;;;;;5033698;28;20090;-62
2021/07/23 02:43:36;;;;;;;1.60;1.30;;;25.00;42.70;;;;;;5017349;28;20116;-60
2021/07/23 02:46:04;;;;;;;1.05;0.90;;;25.00;42.70;;;;;;5033709;28;20352;-62
2021/07/23 02:48:30;;;;;;;1.35;1.20;;;25.00;42.60;;;;;;5032825;28;20479;-60
2021/07/23 02:50:56;;;;;;;1.10;1.00;;;25.00;42.60;;;;;;5035021;28;20032;-59
2021/07/23 02:53:22;;;;;;;1.10;1.00;;;25.00;42.60;;;;;;5037385;28;20039;-56
2021/07/23 02:55:51;;;;;;;1.20;1.00;;;25.00;42.60;;;;;;5054926;28;20186;-61
2021/07/23 02:58:18;;;;;;;1.15;1.00;;;25.00;42.60;;;;;;5034596;28;20029;-61
2021/07/23 03:00:44;;;;;;;2.30;1.20;;;25.00;42.70;;;;;;5037421;28;20108;-59
2021/07/23 03:03:10;;;;;;;1.30;1.20;;;25.00;42.70;;;;;;5036779;28;20021;-59
2021/07/23 03:05:38;;;;;;;1.40;1.20;;;25.00;42.70;;;;;;5037708;28;20087;-59
2021/07/23 03:08:12;;;;;;;1.00;0.90;;;24.90;42.70;;;;;;5035996;28;20527;-61
2021/07/23 03:10:53;;;;;;;1.30;0.95;;;25.00;42.70;;;;;;5036712;28;20373;-57
2021/07/23 03:13:20;;;;;;;1.10;1.00;;;24.90;42.70;;;;;;5037227;28;20056;-60
2021/07/23 03:15:47;;;;;;;1.10;1.00;;;24.90;42.70;;;;;;5036897;28;20056;-61
2021/07/23 03:18:17;;;;;;;1.50;0.95;;;24.90;42.80;;;;;;5055082;28;20032;-62
2021/07/23 03:20:43;;;;;;;1.23;1.10;;;24.90;42.80;;;;;;5037197;28;20044;-61
2021/07/23 03:23:10;;;;;;;1.30;1.20;;;24.90;42.80;;;;;;5036147;28;20033;-60
2021/07/23 03:25:47;;;;;;;1.42;1.00;;;24.90;42.80;;;;;;5054701;28;20451;-55
2021/07/23 03:28:39;;;;;;;1.60;1.27;;;24.90;42.80;;;;;;5050404;28;20040;-61
2021/07/23 03:31:14;;;;;;;1.25;1.00;;;24.90;42.80;;;;;;5035546;28;20436;-60
2021/07/23 03:33:43;;;;;;;1.42;1.27;;;24.80;42.80;;;;;;5053731;28;20047;-60
2021/07/23 03:36:11;;;;;;;1.30;1.20;;;24.80;42.80;;;;;;5034109;28;20028;-58
2021/07/23 03:38:38;;;;;;;2.05;1.00;;;24.80;42.80;;;;;;5036567;28;20032;-58
2021/07/23 03:41:05;;;;;;;1.77;1.27;;;24.80;42.80;;;;;;5036572;28;20084;-58
2021/07/23 03:43:32;;;;;;;1.60;1.15;;;24.80;42.80;;;;;;5036326;28;20072;-60
2021/07/23 03:46:07;;;;;;;1.05;0.85;;;24.80;42.80;;;;;;5036009;28;20037;-61
2021/07/23 03:48:40;;;;;;;1.20;1.10;;;24.80;42.80;;;;;;5029143;28;20021;-61
2021/07/23 03:51:10;;;;;;;1.63;1.25;;;24.80;42.80;;;;;;5037251;28;20094;-60
2021/07/23 03:53:37;;;;;;;2.33;1.40;;;24.80;42.80;;;;;;5035790;28;20036;-59
2021/07/23 03:56:15;;;;;;;1.50;1.13;;;24.80;42.80;;;;;;5035816;28;20063;-60
2021/07/23 03:58:43;;;;;;;1.60;1.10;;;24.80;42.80;;;;;;5035042;28;20051;-58
2021/07/23 04:01:13;;;;;;;1.52;1.42;;;24.80;42.80;;;;;;5035550;28;20029;-61
2021/07/23 04:03:44;;;;;;;1.20;1.10;;;24.80;42.80;;;;;;5035950;28;20428;-59
2021/07/23 04:06:13;;;;;;;1.30;1.10;;;24.80;42.80;;;;;;5054404;28;20033;-57
2021/07/23 04:08:40;;;;;;;1.75;1.40;;;24.70;42.80;;;;;;5035568;28;20052;-60
2021/07/23 04:11:14;;;;;;;1.00;0.90;;;24.70;42.80;;;;;;5035703;28;20433;-61
2021/07/23 04:13:40;;;;;;;1.50;1.17;;;24.80;42.90;;;;;;5033406;28;20052;-60
2021/07/23 04:16:06;;;;;;;1.58;1.20;;;24.80;42.90;;;;;;5035733;28;20024;-62
2021/07/23 04:18:38;;;;;;;1.58;1.30;;;24.80;42.90;;;;;;5054165;28;20025;-60
2021/07/23 04:21:21;;;;;;;1.20;1.00;;;24.80;42.90;;;;;;5035448;28;20036;-59
2021/07/23 04:23:46;;;;;;;2.10;1.20;;;24.80;42.90;;;;;;5035635;28;20120;-62
2021/07/23 04:26:13;;;;;;;1.00;0.93;;;24.70;42.80;;;;;;5035912;28;20036;-60
2021/07/23 04:28:39;;;;;;;1.42;1.10;;;24.70;42.80;;;;;;5034656;28;20024;-59
2021/07/23 04:31:05;;;;;;;1.35;1.25;;;24.70;42.80;;;;;;5035708;28;20070;-64
2021/07/23 04:33:43;;;;;;;1.17;1.08;;;24.70;42.80;;;;;;5020006;28;20047;-61
2021/07/23 04:36:44;;;;;;;1.08;1.00;;;24.80;42.90;;;;;;4971904;28;20343;-61
2021/07/23 04:39:32;;;;;;;1.10;1.00;;;24.70;42.90;;;;;;5047299;28;20033;-58
2021/07/23 04:42:05;;;;;;;1.58;1.17;;;24.70;42.90;;;;;;5035995;28;20039;-61
2021/07/23 04:44:32;;;;;;;1.10;1.00;;;24.70;42.90;;;;;;5053253;28;20033;-62
2021/07/23 04:47:01;;;;;;;1.25;0.98;;;24.70;42.90;;;;;;5053009;28;20028;-61
2021/07/23 04:49:29;;;;;;;1.58;1.30;;;24.70;42.90;;;;;;5035271;28;20052;-60
2021/07/23 04:51:57;;;;;;;1.05;0.95;;;24.70;42.90;;;;;;5035031;28;20137;-58
2021/07/23 04:54:42;;;;;;;1.40;0.88;;;24.70;42.90;;;;;;5052223;28;20048;-61
2021/07/23 04:57:43;;;;;;;1.35;1.00;;;24.70;43.00;;;;;;5018104;28;20428;-58
2021/07/23 05:00:09;;;;;;;2.70;1.10;;;24.70;43.00;;;;;;5052091;28;20321;-62
2021/07/23 05:02:41;;;;;;;1.30;1.10;;;24.70;43.00;;;;;;5051704;28;20024;-60
2021/07/23 05:05:12;;;;;;;1.15;1.00;;;24.70;43.00;;;;;;5034691;28;20385;-60
2021/07/23 05:07:40;;;;;;;1.27;1.15;;;24.70;43.10;;;;;;5033019;28;20341;-60
2021/07/23 05:10:07;;;;;;;1.80;1.15;;;24.70;43.10;;;;;;5034460;28;20110;-59
2021/07/23 05:12:33;;;;;;;1.38;1.00;;;24.80;43.10;;;;;;5034362;28;20025;-59
2021/07/23 05:15:01;;;;;;;1.13;1.00;;;24.80;43.10;;;;;;5050219;28;20441;-60
2021/07/23 05:17:27;;;;;;;1.20;0.90;;;24.80;43.10;;;;;;5052339;28;20033;-57
2021/07/23 05:19:53;;;;;;;1.15;1.00;;;24.80;43.10;;;;;;5031271;28;20356;-61
2021/07/23 05:22:19;;;;;;;1.45;1.10;;;24.80;43.00;;;;;;5051927;28;20039;-60
2021/07/23 05:24:45;;;;;;;1.73;1.10;;;24.80;43.10;;;;;;5052236;28;20032;-62
2021/07/23 05:27:11;;;;;;;1.70;1.10;;;24.80;43.70;;;;;;5050290;28;20021;-59
2021/07/23 05:29:37;;;;;;;2.20;1.10;;;24.80;43.10;;;;;;5053084;28;20360;-58
2021/07/23 05:32:03;;;;;;;0.98;0.90;;;24.80;43.10;;;;;;5051755;28;20021;-61
2021/07/23 05:34:29;;;;;;;1.05;0.95;;;24.80;43.10;;;;;;5018272;28;20040;-60
2021/07/23 05:36:58;;;;;;;1.20;1.00;;;24.80;43.10;;;;;;5050072;28;20016;-60
2021/07/23 05:39:24;;;;;;;1.17;1.02;;;24.80;43.10;;;;;;5034096;28;20445;-62
2021/07/23 05:41:50;;;;;;;1.30;0.75;;;24.80;43.10;;;;;;5052380;28;20031;-61
2021/07/23 05:44:16;;;;;;;1.77;1.05;;;24.80;43.10;;;;;;5052409;28;20647;-61
2021/07/23 05:46:41;;;;;;;1.00;0.80;;;24.80;43.10;;;;;;5051894;28;20067;-61
2021/07/23 05:49:07;;;;;;;1.73;1.00;;;24.80;43.10;;;;;;5052102;28;20464;-60
2021/07/23 05:51:33;;;;;;;1.38;0.90;;;24.90;43.10;;;;;;5033824;28;20024;-59
2021/07/23 05:53:59;;;;;;;0.60;0.60;;;24.80;43.00;;;;;;5050859;28;20029;-60
2021/07/23 05:56:25;;;;;;;1.77;0.77;;;24.90;43.10;;;;;;5051638;28;20069;-61
2021/07/23 05:58:51;;;;;;;2.05;0.90;;;24.80;43.10;;;;;;5051976;28;20032;-60
2021/07/23 06:01:17;;;;;;;0.85;0.60;;;24.90;43.10;;;;;;5015157;28;20040;-61
2021/07/23 06:03:46;;;;;;;0.90;0.80;;;24.90;43.20;;;;;;5050712;28;20029;-59
2021/07/23 06:06:13;;;;;;;1.42;0.73;;;24.90;43.20;;;;;;5050629;28;20032;-59
2021/07/23 06:08:38;;;;;;;0.93;0.80;;;24.80;43.10;;;;;;5030923;28;20107;-58
2021/07/23 06:11:05;;;;;;;1.00;0.82;;;24.80;43.10;;;;;;5031971;28;20405;-57
2021/07/23 06:13:41;;;;;;;0.70;0.60;;;24.80;43.10;;;;;;5032163;28;20029;-61
2021/07/23 06:16:11;;;;;;;0.95;0.73;;;24.80;43.10;;;;;;5031171;28;20029;-58
2021/07/23 06:18:38;;;;;;;2.20;0.80;;;24.80;43.10;;;;;;5030632;28;21630;-60
2021/07/23 06:21:06;;;;;;;0.73;0.60;;;24.80;43.10;;;;;;5031596;28;20025;-61
2021/07/23 06:23:32;;;;;;;0.95;0.60;;;24.80;43.10;;;;;;5031981;28;20033;-61
2021/07/23 06:26:01;;;;;;;1.90;0.80;;;24.80;43.10;;;;;;5032621;28;20036;-58
2021/07/23 06:28:27;;;;;;;0.85;0.57;;;24.80;43.10;;;;;;5035498;28;20033;-61
2021/07/23 06:30:59;;;;;;;0.60;0.60;;;24.90;43.20;;;;;;5035717;28;20037;-59
2021/07/23 06:33:25;;;;;;;1.15;0.85;;;24.90;43.20;;;;;;5034039;28;20061;-62
2021/07/23 06:35:50;;;;;;;0.93;0.70;;;24.90;43.20;;;;;;5034533;28;20468;-59
2021/07/23 06:38:16;;;;;;;1.60;1.20;;;24.90;43.20;;;;;;5035247;28;20116;-60
2021/07/23 06:40:42;;;;;;;1.55;0.90;;;24.90;43.20;;;;;;5033892;28;20029;-57
2021/07/23 06:43:08;;;;;;;1.60;0.82;;;24.90;43.20;;;;;;5035026;28;20059;-58
2021/07/23 06:45:33;;;;;;;2.47;0.65;;;24.90;43.30;;;;;;5035274;28;20422;-61
2021/07/23 06:48:00;;;;;;;2.72;1.00;;;24.90;43.30;;;;;;5034650;28;20455;-60
2021/07/23 06:50:26;;;;;;;1.63;0.88;;;25.00;43.30;;;;;;5032778;28;20449;-63
2021/07/23 06:52:52;;;;;;;2.25;1.08;;;25.00;43.30;;;;;;5035130;28;20036;-61
2021/07/23 06:55:17;;;;;;;1.70;1.00;;;25.00;43.30;;;;;;5034553;28;20188;-60
2021/07/23 06:57:43;;;;;;;2.10;1.00;;;25.10;43.30;;;;;;5033585;28;20053;-63
2021/07/23 07:00:10;;;;;;;0.75;0.75;;;25.00;43.20;;;;;;5034384;28;20029;-61
2021/07/23 07:02:36;;;;;;;1.65;1.15;;;25.10;43.20;;;;;;5034101;28;20049;-63
2021/07/23 07:05:02;;;;;;;1.10;0.85;;;25.10;43.20;;;;;;5034375;28;20021;-62
2021/07/23 07:07:28;;;;;;;1.05;0.90;;;25.10;43.20;;;;;;5042039;28;20045;-62
2021/07/23 07:09:54;;;;;;;2.65;1.17;;;25.10;43.20;;;;;;5054224;28;20091;-63
2021/07/23 07:12:20;;;;;;;1.23;1.10;;;25.20;43.30;;;;;;5054184;28;20043;-62
2021/07/23 07:14:46;;;;;;;1.08;0.88;;;25.20;43.20;;;;;;5054945;28;20048;-62
2021/07/23 07:17:12;;;;;;;2.70;1.10;;;25.10;43.20;;;;;;5052412;28;20029;-60
2021/07/23 07:19:38;;;;;;;1.27;0.93;;;25.20;43.20;;;;;;5035978;28;20037;-62
2021/07/23 07:22:05;;;;;;;1.67;0.85;;;25.20;43.80;;;;;;5053907;28;20060;-57
2021/07/23 07:24:31;;;;;;;1.42;1.02;;;25.20;43.10;;;;;;5054032;28;20340;-61
2021/07/23 07:26:57;;;;;;;3.38;1.00;;;25.30;43.10;;;;;;5049970;28;20029;-60
2021/07/23 07:29:22;;;;;;;1.00;0.70;;;25.30;43.10;;;;;;5053012;28;20032;-58
2021/07/23 07:31:48;;;;;;;1.35;1.00;;;25.30;43.10;;;;;;5053473;28;20360;-56
2021/07/23 07:34:14;;;;;;;1.95;1.15;;;25.30;43.10;;;;;;5054055;28;20025;-58
2021/07/23 07:36:40;;;;;;;1.10;0.80;;;25.30;43.10;;;;;;5053954;28;20028;-58
2021/07/23 07:39:06;;;;;;;1.17;0.95;;;25.30;43.20;;;;;;5054346;28;20170;-59
2021/07/23 07:41:32;;;;;;;1.40;0.98;;;25.40;43.30;;;;;;5054312;28;20025;-57
2021/07/23 07:43:58;;;;;;;1.85;1.40;;;25.40;43.30;;;;;;5054413;28;20461;-57
2021/07/23 07:46:24;;;;;;;1.23;0.85;;;25.40;43.30;;;;;;5048172;28;20039;-63
2021/07/23 07:48:50;;;;;;;1.65;1.00;;;25.40;43.30;;;;;;5054000;28;20029;-60
2021/07/23 07:51:16;;;;;;;2.28;1.20;;;25.40;43.30;;;;;;5050408;28;20287;-58
2021/07/23 07:53:43;;;;;;;1.90;1.48;;;25.50;43.20;;;;;;5050002;28;20041;-61
2021/07/23 07:56:12;;;;;;;1.50;1.25;;;25.50;43.20;;;;;;5051495;28;20025;-59
2021/07/23 07:58:39;;;;;;;2.55;1.50;;;25.50;43.10;;;;;;5052327;28;20102;-58
2021/07/23 08:01:08;;;;;;;2.13;1.35;;;25.50;43.10;;;;;;5017800;28;20340;-60
2021/07/23 08:03:33;;;;;;;1.80;1.48;;;25.50;43.10;;;;;;5047176;28;20449;-60
2021/07/23 08:06:04;;;;;;;1.90;1.65;;;25.50;43.10;;;;;;5050527;28;20025;-58
2021/07/23 08:08:30;;;;;;;1.70;1.10;;;25.50;43.00;;;;;;5049500;28;20061;-57
2021/07/23 08:10:56;;;;;;;2.15;1.30;;;25.50;43.10;;;;;;5052497;28;20043;-59
2021/07/23 08:13:22;;;;;;;1.75;1.60;;;25.50;43.00;;;;;;5052158;28;20426;-60
2021/07/23 08:15:47;;;;;;;1.50;1.20;;;25.60;43.00;;;;;;5047885;28;20021;-59
2021/07/23 08:18:14;;;;;;;1.50;1.40;;;25.60;43.00;;;;;;5052700;28;20047;-61
2021/07/23 08:20:42;;;;;;;1.75;1.55;;;25.60;43.00;;;;;;5049962;28;20067;-61
2021/07/23 08:23:09;;;;;;;1.58;1.48;;;25.60;43.00;;;;;;5049162;28;20017;-61
2021/07/23 08:25:34;;;;;;;2.53;1.40;;;25.60;43.00;;;;;;5051742;28;20063;-61
2021/07/23 08:28:00;;;;;;;1.75;1.30;;;25.60;43.00;;;;;;5050373;28;20032;-60
2021/07/23 08:30:29;;;;;;;0.98;0.85;;;25.60;43.00;;;;;;5051637;28;20049;-60
2021/07/23 08:32:55;;;;;;;1.73;1.35;;;25.60;43.00;;;;;;5049768;28;20421;-61
2021/07/23 08:35:20;;;;;;;1.95;1.55;;;25.60;43.10;;;;;;5048974;28;20029;-61
2021/07/23 08:37:46;;;;;;;1.75;1.40;;;25.60;43.10;;;;;;5052155;28;20073;-59
2021/07/23 08:40:12;;;;;;;2.25;1.50;;;25.60;43.10;;;;;;5051637;28;20032;-61
2021/07/23 08:42:39;;;;;;;1.55;1.38;;;25.70;43.20;;;;;;5049903;28;20413;-64
2021/07/23 08:45:06;;;;;;;1.17;1.08;;;25.60;43.10;;;;;;5050294;28;20036;-59
2021/07/23 08:47:35;;;;;;;1.23;1.10;;;25.60;43.10;;;;;;5053009;28;20475;-57
2021/07/23 08:50:01;;;;;;;1.42;1.15;;;25.70;43.20;;;;;;5050256;28;20033;-58
2021/07/23 08:52:47;;;;;;;1.58;1.30;;;25.70;43.20;;;;;;5053059;28;20033;-60
2021/07/23 08:55:16;;;;;;;1.58;1.33;;;25.70;43.20;;;;;;5052425;28;20024;-57
2021/07/23 08:57:43;;;;;;;1.42;1.20;;;25.70;43.30;;;;;;5053382;28;20029;-56
2021/07/23 09:00:10;;;;;;;1.48;1.20;;;25.70;43.30;;;;;;5052080;28;20028;-61
2021/07/23 09:02:53;;;;;;;1.58;1.40;;;25.70;43.30;;;;;;5053291;28;20114;-61
2021/07/23 09:05:41;;;;;;;1.73;1.50;;;25.70;43.30;;;;;;5052624;28;20025;-60
2021/07/23 09:08:21;;;;;;;1.17;1.08;;;25.70;43.30;;;;;;5050753;28;20041;-60
2021/07/23 09:11:01;;;;;;;1.45;1.10;;;25.70;43.30;;;;;;5051105;28;20072;-60
2021/07/23 09:13:27;;;;;;;2.28;1.10;;;25.70;43.90;;;;;;5053464;28;20029;-62
2021/07/23 09:15:57;;;;;;;2.22;1.30;;;25.70;43.30;;;;;;5053582;28;20021;-60
2021/07/23 09:18:31;;;;;;;1.75;1.17;;;25.70;43.40;;;;;;5052153;28;20025;-57
2021/07/23 09:20:58;;;;;;;1.30;1.20;;;25.70;43.40;;;;;;5054191;28;20032;-59
2021/07/23 09:23:31;;;;;;;1.58;1.25;;;25.70;43.40;;;;;;5054468;28;20033;-58
2021/07/23 09:26:02;;;;;;;1.75;1.23;;;25.80;43.50;;;;;;5052957;28;20033;-58
2021/07/23 09:28:35;;;;;;;1.70;1.10;;;25.70;43.40;;;;;;5052086;28;20037;-59
2021/07/23 09:31:03;;;;;;;1.65;1.17;;;25.80;43.50;;;;;;5051977;28;20124;-62
2021/07/23 09:33:34;;;;;;;1.42;1.20;;;25.70;43.40;;;;;;5051740;28;20029;-60
2021/07/23 09:36:05;;;;;;;1.35;1.15;;;25.70;43.50;;;;;;5054325;28;20479;-58
2021/07/23 09:38:47;;;;;;;1.20;0.95;;;25.80;43.50;;;;;;5052829;28;20051;-59
2021/07/23 09:41:25;;;;;;;1.88;1.40;;;25.80;43.50;;;;;;5052840;28;20037;-57
2021/07/23 09:43:57;;;;;;;1.23;1.13;;;25.80;43.60;;;;;;5052731;28;20067;-60
2021/07/23 09:46:25;;;;;;;1.40;1.20;;;25.80;43.60;;;;;;5053058;28;20429;-59
2021/07/23 09:48:52;;;;;;;2.45;1.60;;;25.80;43.60;;;;;;5052060;28;20040;-60
2021/07/23 09:51:21;;;;;;;2.08;1.58;;;25.80;43.70;;;;;;5050618;28;20441;-61
2021/07/23 09:53:50;;;;;;;1.65;1.17;;;25.80;43.70;;;;;;5052203;28;20021;-59
2021/07/23 09:56:17;;;;;;;2.17;1.60;;;25.80;43.70;;;;;;5052703;28;20115;-59
2021/07/23 09:58:45;;;;;;;1.52;1.20;;;25.80;43.70;;;;;;5052244;28;20057;-60
2021/07/23 10:01:27;;;;;;;1.45;1.30;;;25.80;43.60;;;;;;5054372;28;20024;-57
2021/07/23 10:03:56;;;;;;;1.50;1.40;;;25.80;43.60;;;;;;5056840;28;20039;-59
2021/07/23 10:06:40;;;;;;;1.60;1.35;;;25.80;43.60;;;;;;5056285;28;20029;-61
2021/07/23 10:09:10;;;;;;;1.52;1.38;;;25.80;43.60;;;;;;5054743;28;20037;-59
2021/07/23 10:11:40;;;;;;;1.40;1.30;;;25.80;43.60;;;;;;5056777;28;20108;-59
2021/07/23 10:14:10;;;;;;;1.70;1.27;;;25.80;43.60;;;;;;5056272;28;20036;-61
2021/07/23 10:16:39;;;;;;;1.58;1.40;;;25.80;43.60;;;;;;5054929;28;20191;-60
2021/07/23 10:19:08;;;;;;;1.98;1.30;;;25.80;43.60;;;;;;5056376;28;20074;-59
2021/07/23 10:21:34;;;;;;;1.40;1.10;;;25.90;43.60;;;;;;5055171;28;20129;-61
2021/07/23 10:24:01;;;;;;;1.33;1.23;;;25.80;43.50;;;;;;5056129;28;20381;-59
2021/07/23 10:26:29;;;;;;;1.63;1.50;;;25.90;43.60;;;;;;5056110;28;20079;-58
2021/07/23 10:28:57;;;;;;;1.60;1.15;;;25.90;43.60;;;;;;5056419;28;20107;-58
2021/07/23 10:31:27;;;;;;;2.28;1.30;;;25.90;43.60;;;;;;5036288;28;20456;-54
2021/07/23 10:34:01;;;;;;;2.25;1.30;;;25.90;43.50;;;;;;5056023;28;20063;-56
2021/07/23 10:36:26;;;;;;;1.70;1.40;;;25.90;43.60;;;;;;5055338;28;20063;-60
2021/07/23 10:39:04;;;;;;;1.55;1.23;;;25.90;43.60;;;;;;5035922;28;20464;-55
2021/07/23 10:41:50;;;;;;;1.25;1.05;;;25.90;43.60;;;;;;5055903;28;20067;-60
2021/07/23 10:44:28;;;;;;;1.55;1.17;;;25.90;43.60;;;;;;5003141;28;20051;-62
2021/07/23 10:46:56;;;;;;;1.20;1.00;;;26.00;43.70;;;;;;5056326;28;20448;-58
2021/07/23 10:49:24;;;;;;;3.13;1.30;;;26.00;43.70;;;;;;5055046;28;20040;-54
2021/07/23 10:51:55;;;;;;;3.25;1.35;;;26.00;43.60;;;;;;5055314;28;20033;-57
2021/07/23 10:54:24;;;;;;;2.45;1.35;;;26.00;43.60;;;;;;5054858;28;20036;-56
2021/07/23 10:56:57;;;;;;;2.00;1.35;;;26.00;43.60;;;;;;5056196;28;20024;-59
2021/07/23 10:59:41;;;;;;;1.35;1.25;;;26.00;43.50;;;;;;5055219;28;20028;-54
2021/07/23 11:02:14;;;;;;;1.80;1.40;;;26.10;43.60;;;;;;5051379;28;20060;-62
2021/07/23 11:04:41;;;;;;;1.43;1.20;;;26.00;43.50;;;;;;5055211;28;20033;-54
2021/07/23 11:07:09;;;;;;;1.92;1.48;;;26.00;43.60;;;;;;5036161;28;20410;-62
2021/07/23 11:09:35;;;;;;;1.10;1.00;;;26.00;43.60;;;;;;5036962;28;20080;-63
2021/07/23 11:12:19;;;;;;;1.60;1.35;;;26.10;43.70;;;;;;5045717;28;20029;-60
2021/07/23 11:14:52;;;;;;;;;;;26.10;43.70;;;;;;5056759;28;20110;-59
2021/07/23 11:17:24;;;;;;;1.17;1.08;;;26.10;43.80;;;;;;5055382;28;20221;-61
2021/07/23 11:19:55;;;;;;;1.38;1.27;;;26.10;43.80;;;;;;5055877;28;20371;-52
2021/07/23 11:22:26;;;;;;;1.15;1.05;;;26.10;43.70;;;;;;5056457;28;20507;-54
2021/07/23 11:25:07;;;;;;;1.98;1.23;;;26.20;43.70;;;;;;5050901;28;20071;-57
2021/07/23 11:27:41;;;;;;;3.60;1.40;;;26.20;43.60;;;;;;5052959;28;20033;-58
2021/07/23 11:30:17;;;;;;;1.65;1.40;;;26.20;43.60;;;;;;5054057;28;20044;-58
2021/07/23 11:32:52;;;;;;;1.80;1.55;;;26.30;43.60;;;;;;5056237;28;20102;-58
2021/07/23 11:35:19;;;;;;;1.48;1.38;;;26.30;43.60;;;;;;5054196;28;20149;-58
2021/07/23 11:37:47;;;;;;;1.95;1.63;;;26.30;43.60;;;;;;5053086;28;20037;-58
2021/07/23 11:40:16;;;;;;;1.83;1.50;;;26.30;43.50;;;;;;5050812;28;20029;-57
2021/07/23 11:42:50;;;;;;;1.60;1.30;;;26.30;43.50;;;;;;5053341;28;20029;-59
2021/07/23 11:45:21;;;;;;;2.85;1.40;;;26.40;43.50;;;;;;5052963;28;20040;-59
2021/07/23 11:47:56;;;;;;;1.67;1.25;;;26.40;43.50;;;;;;5051073;28;20028;-63
2021/07/23 11:50:24;;;;;;;1.67;1.50;;;26.40;43.50;;;;;;5056132;28;20342;-61
2021/07/23 11:53:02;;;;;;;1.63;1.52;;;26.40;43.50;;;;;;5055741;28;20029;-62
2021/07/23 11:55:42;;;;;;;2.47;1.52;;;26.50;43.40;;;;;;5055951;28;20091;-62
2021/07/23 11:58:19;;;;;;;2.17;1.75;;;26.50;43.40;;;;;;5055703;28;20115;-64
2021/07/23 12:00:44;;;;;;;1.60;1.50;;;26.50;43.40;;;;;;5056062;28;20048;-63
2021/07/23 12:03:24;;;;;;;2.00;1.60;;;26.50;43.30;;;;;;5055740;28;20043;-61
2021/07/23 12:05:51;;;;;;;1.90;1.60;;;26.60;43.20;;;;;;5055918;28;20040;-62
2021/07/23 12:08:17;;;;;;;1.40;1.30;;;26.60;43.20;;;;;;5055498;28;20056;-61
2021/07/23 12:10:46;;;;;;;1.73;1.50;;;26.60;43.10;;;;;;5055169;28;20047;-61
2021/07/23 12:13:13;;;;;;;1.63;1.30;;;26.60;43.10;;;;;;5055676;28;20124;-63
2021/07/23 12:15:50;;;;;;;1.52;1.40;;;26.60;42.90;;;;;;5055626;28;20088;-62
2021/07/23 12:18:20;;;;;;;1.88;1.65;;;26.70;42.90;;;;;;5055705;28;20036;-61
2021/07/23 12:20:48;;;;;;;1.92;1.45;;;26.60;42.80;;;;;;5038003;28;20078;-65
2021/07/23 12:23:27;;;;;;;2.72;1.98;;;26.70;42.90;;;;;;5054810;28;20342;-62
2021/07/23 12:25:54;;;;;;;2.03;1.50;;;26.70;42.80;;;;;;5054917;28;20037;-61
2021/07/23 12:28:22;;;;;;;2.10;1.70;;;26.70;42.80;;;;;;5055179;28;20094;-60
2021/07/23 12:30:48;;;;;;;1.85;1.60;;;26.70;42.70;;;;;;5055433;28;20045;-62
2021/07/23 12:33:15;;;;;;;1.88;1.58;;;26.70;42.70;;;;;;5055538;28;20044;-63
2021/07/23 12:35:42;;;;;;;1.50;1.40;;;26.70;42.70;;;;;;5055230;28;20429;-61
2021/07/23 12:38:09;;;;;;;2.78;1.60;;;26.70;42.60;;;;;;5055302;28;20029;-61
2021/07/23 12:40:51;;;;;;;1.60;1.35;;;26.80;42.60;;;;;;5055082;28;20064;-61
2021/07/23 12:43:18;;;;;;;1.92;1.50;;;26.80;42.60;;;;;;5054311;28;20475;-60
2021/07/23 12:45:45;;;;;;;1.95;1.60;;;26.80;42.60;;;;;;5055555;28;20033;-60
2021/07/23 12:48:13;;;;;;;2.00;1.80;;;26.80;42.50;;;;;;5055407;28;20118;-61
2021/07/23 12:50:40;;;;;;;2.33;1.50;;;26.80;42.50;;;;;;5055229;28;20452;-61
2021/07/23 12:53:26;;;;;;;1.75;1.50;;;26.80;42.50;;;;;;5054830;28;20436;-62
2021/07/23 12:55:59;;;;;;;1.80;1.60;;;26.80;42.40;;;;;;5055404;28;20332;-61
2021/07/23 12:58:41;;;;;;;2.13;1.90;;;26.80;42.40;;;;;;5054786;28;20124;-62
2021/07/23 13:01:11;;;;;;;1.80;1.70;;;26.80;42.30;;;;;;5054703;28;20040;-64